Archival Weather

Tokyo Intl

Tokyo, Japan (RJTT)

Report from: Friday, September 22, 2023 5:30 PM JST
Current time: Sunday, February 25, 2024 12:22 AM JST

Current weather – Weather history – Daily summaries
Weather forecast

Present weatherRain showers
Temperature25.0°C (77.0°F)
Dew point23.0°C (73.4°F)
Winds 17 kts (8.7 m/s, 19.6 mph) East (80°)
Visibility6.2 mi. (10 km)
Clouds Few clouds 1,500 ft. (457 m)
Scattered clouds 2,000 ft. (610 m)
Ceiling: Broken clouds 3,000 ft. (914 m)
Altimeter29.88 in.Hg (1012 mB)
Relative humidity89 %
Density altitude1,577 ft. (481 m)
Remarks No significant changes expected in the next two hours
Flight conditions Visual Meteorological Conditions
Raw dataRJTT 220830Z 08017KT 9999 SHRA FEW015 SCT020 BKN030 25/23 Q1012 NOSIG
An error has occurred. This application may no longer respond until reloaded. Reload 🗙